sensor_id;sensor_type;location;lat;lon;timestamp;pressure;altitude;pressure_sealevel;temperature;humidity
37486;BME280;23341;50.296;18.960;2023-10-19T00:00:41;50118.19;;;-144.43;100.00
37486;BME280;23341;50.296;18.960;2023-10-19T00:06:08;50100.19;;;-144.43;100.00
37486;BME280;23341;50.296;18.960;2023-10-19T00:11:13;50102.19;;;-144.43;100.00
37486;BME280;23341;50.296;18.960;2023-10-19T00:16:25;50054.22;;;-144.43;100.00
37486;BME280;23341;50.296;18.960;2023-10-19T00:21:33;50078.19;;;-144.43;100.00
37486;BME280;23341;50.296;18.960;2023-10-19T00:26:52;50090.19;;;-144.43;100.00
37486;BME280;23341;50.296;18.960;2023-10-19T00:31:59;50090.19;;;-144.43;100.00
37486;BME280;23341;50.296;18.960;2023-10-19T00:37:06;50114.19;;;-144.43;100.00
37486;BME280;23341;50.296;18.960;2023-10-19T00:42:13;50102.19;;;-144.43;100.00
37486;BME280;23341;50.296;18.960;2023-10-19T00:47:23;50118.19;;;-144.43;100.00
37486;BME280;23341;50.296;18.960;2023-10-19T00:52:35;50098.19;;;-144.43;100.00
37486;BME280;23341;50.296;18.960;2023-10-19T00:57:48;50130.19;;;-144.43;100.00
37486;BME280;23341;50.296;18.960;2023-10-19T01:02:52;50146.16;;;-144.43;100.00
37486;BME280;23341;50.296;18.960;2023-10-19T01:08:05;50170.16;;;-144.43;100.00
37486;BME280;23341;50.296;18.960;2023-10-19T01:13:22;50182.16;;;-144.43;100.00
37486;BME280;23341;50.296;18.960;2023-10-19T01:18:30;50228.13;;;-144.43;100.00
37486;BME280;23341;50.296;18.960;2023-10-19T01:23:37;50190.16;;;-144.43;100.00
37486;BME280;23341;50.296;18.960;2023-10-19T01:28:41;50182.16;;;-144.43;100.00
37486;BME280;23341;50.296;18.960;2023-10-19T01:33:46;50206.13;;;-144.43;100.00
37486;BME280;23341;50.296;18.960;2023-10-19T01:38:53;50208.13;;;-144.43;100.00
37486;BME280;23341;50.296;18.960;2023-10-19T01:43:58;50186.16;;;-144.43;100.00
37486;BME280;23341;50.296;18.960;2023-10-19T01:49:07;50170.16;;;-144.43;100.00
37486;BME280;23341;50.296;18.960;2023-10-19T01:54:13;50178.16;;;-144.43;100.00
37486;BME280;23341;50.296;18.960;2023-10-19T01:59:17;50164.16;;;-144.43;100.00
37486;BME280;23341;50.296;18.960;2023-10-19T02:04:22;50210.13;;;-144.43;100.00
37486;BME280;23341;50.296;18.960;2023-10-19T02:09:27;50210.13;;;-144.43;100.00
37486;BME280;23341;50.296;18.960;2023-10-19T02:14:35;50242.13;;;-144.43;100.00
37486;BME280;23341;50.296;18.960;2023-10-19T02:19:40;50242.13;;;-144.43;100.00
37486;BME280;23341;50.296;18.960;2023-10-19T02:24:45;50274.09;;;-144.43;100.00
37486;BME280;23341;50.296;18.960;2023-10-19T02:29:50;50306.09;;;-144.43;100.00
37486;BME280;23341;50.296;18.960;2023-10-19T02:34:54;50284.09;;;-144.43;100.00
37486;BME280;23341;50.296;18.960;2023-10-19T02:40:02;50272.09;;;-144.43;100.00
37486;BME280;23341;50.296;18.960;2023-10-19T02:45:15;50290.09;;;-144.43;100.00
37486;BME280;23341;50.296;18.960;2023-10-19T02:50:20;50274.09;;;-144.43;100.00
37486;BME280;23341;50.296;18.960;2023-10-19T02:55:27;50324.09;;;-144.43;100.00
37486;BME280;23341;50.296;18.960;2023-10-19T03:00:32;50284.09;;;-144.43;100.00
37486;BME280;23341;50.296;18.960;2023-10-19T03:05:37;50266.13;;;-144.43;100.00
37486;BME280;23341;50.296;18.960;2023-10-19T03:10:46;50214.13;;;-144.43;100.00
37486;BME280;23341;50.296;18.960;2023-10-19T03:16:06;50266.13;;;-144.43;100.00
37486;BME280;23341;50.296;18.960;2023-10-19T03:21:12;50270.09;;;-144.43;100.00
37486;BME280;23341;50.296;18.960;2023-10-19T03:26:17;50298.09;;;-144.43;100.00
37486;BME280;23341;50.296;18.960;2023-10-19T03:31:25;50300.09;;;-144.43;100.00
37486;BME280;23341;50.296;18.960;2023-10-19T03:36:29;50270.09;;;-144.43;100.00
37486;BME280;23341;50.296;18.960;2023-10-19T03:41:37;50274.09;;;-144.43;100.00
37486;BME280;23341;50.296;18.960;2023-10-19T03:46:44;50270.09;;;-144.43;100.00
37486;BME280;23341;50.296;18.960;2023-10-19T03:52:01;50270.09;;;-144.43;100.00
37486;BME280;23341;50.296;18.960;2023-10-19T03:57:25;50290.09;;;-144.43;100.00
37486;BME280;23341;50.296;18.960;2023-10-19T04:02:32;50288.09;;;-144.43;100.00
37486;BME280;23341;50.296;18.960;2023-10-19T04:07:40;50296.09;;;-144.43;100.00
37486;BME280;23341;50.296;18.960;2023-10-19T04:12:47;50298.09;;;-144.43;100.00
37486;BME280;23341;50.296;18.960;2023-10-19T04:17:51;50294.09;;;-144.43;100.00
37486;BME280;23341;50.296;18.960;2023-10-19T04:22:56;50278.09;;;-144.43;100.00
37486;BME280;23341;50.296;18.960;2023-10-19T04:28:03;50288.09;;;-144.43;100.00
37486;BME280;23341;50.296;18.960;2023-10-19T04:33:09;50266.13;;;-144.43;100.00
37486;BME280;23341;50.296;18.960;2023-10-19T04:38:13;50240.13;;;-144.43;100.00
37486;BME280;23341;50.296;18.960;2023-10-19T04:43:22;50282.09;;;-144.43;100.00
37486;BME280;23341;50.296;18.960;2023-10-19T04:48:26;50246.13;;;-144.43;100.00
37486;BME280;23341;50.296;18.960;2023-10-19T04:53:34;50266.13;;;-144.43;100.00
37486;BME280;23341;50.296;18.960;2023-10-19T04:58:39;50250.13;;;-144.43;100.00
37486;BME280;23341;50.296;18.960;2023-10-19T05:03:44;50230.13;;;-144.43;100.00
37486;BME280;23341;50.296;18.960;2023-10-19T05:08:49;50250.13;;;-144.43;100.00
37486;BME280;23341;50.296;18.960;2023-10-19T05:13:56;50266.13;;;-144.43;100.00
37486;BME280;23341;50.296;18.960;2023-10-19T05:19:00;50294.09;;;-144.43;100.00
37486;BME280;23341;50.296;18.960;2023-10-19T05:24:08;50282.09;;;-144.43;100.00
37486;BME280;23341;50.296;18.960;2023-10-19T05:29:14;50282.09;;;-144.43;100.00
37486;BME280;23341;50.296;18.960;2023-10-19T05:34:18;50292.09;;;-144.43;100.00
37486;BME280;23341;50.296;18.960;2023-10-19T05:39:22;50230.13;;;-144.43;100.00
37486;BME280;23341;50.296;18.960;2023-10-19T05:44:32;50256.13;;;-144.43;100.00
37486;BME280;23341;50.296;18.960;2023-10-19T05:49:36;50308.09;;;-144.43;100.00
37486;BME280;23341;50.296;18.960;2023-10-19T05:54:40;50282.09;;;-144.43;100.00
37486;BME280;23341;50.296;18.960;2023-10-19T05:59:46;50322.09;;;-144.43;100.00
37486;BME280;23341;50.296;18.960;2023-10-19T06:04:50;50326.09;;;-144.43;100.00
37486;BME280;23341;50.296;18.960;2023-10-19T06:09:55;50326.09;;;-144.43;100.00
37486;BME280;23341;50.296;18.960;2023-10-19T06:15:00;50376.06;;;-144.43;100.00
37486;BME280;23341;50.296;18.960;2023-10-19T06:20:07;50344.06;;;-144.43;100.00
37486;BME280;23341;50.296;18.960;2023-10-19T06:25:23;50370.06;;;-144.43;100.00
37486;BME280;23341;50.296;18.960;2023-10-19T06:30:30;50394.06;;;-144.43;100.00
37486;BME280;23341;50.296;18.960;2023-10-19T06:35:34;50378.06;;;-144.43;100.00
37486;BME280;23341;50.296;18.960;2023-10-19T06:40:40;50416.03;;;-144.43;100.00
37486;BME280;23341;50.296;18.960;2023-10-19T06:45:46;50422.03;;;-144.43;100.00
37486;BME280;23341;50.296;18.960;2023-10-19T06:50:50;50426.03;;;-144.43;100.00
37486;BME280;23341;50.296;18.960;2023-10-19T06:55:55;50420.03;;;-144.43;100.00
37486;BME280;23341;50.296;18.960;2023-10-19T07:01:00;50456.03;;;-144.43;100.00
37486;BME280;23341;50.296;18.960;2023-10-19T07:06:08;50446.03;;;-144.43;100.00
37486;BME280;23341;50.296;18.960;2023-10-19T07:11:17;50458.03;;;-144.43;100.00
37486;BME280;23341;50.296;18.960;2023-10-19T07:16:22;50492.00;;;-144.43;100.00
37486;BME280;23341;50.296;18.960;2023-10-19T07:21:27;50450.03;;;-144.43;100.00
37486;BME280;23341;50.296;18.960;2023-10-19T07:26:34;50458.03;;;-144.43;100.00
37486;BME280;23341;50.296;18.960;2023-10-19T07:31:47;50490.00;;;-144.43;100.00
37486;BME280;23341;50.296;18.960;2023-10-19T07:36:51;50466.03;;;-144.43;100.00
37486;BME280;23341;50.296;18.960;2023-10-19T07:41:57;50460.03;;;-144.43;100.00
37486;BME280;23341;50.296;18.960;2023-10-19T07:47:02;50450.03;;;-144.43;100.00
37486;BME280;23341;50.296;18.960;2023-10-19T07:52:07;50418.03;;;-144.43;100.00
37486;BME280;23341;50.296;18.960;2023-10-19T07:57:13;50446.03;;;-144.43;100.00
37486;BME280;23341;50.296;18.960;2023-10-19T08:02:20;50498.00;;;-144.43;100.00
37486;BME280;23341;50.296;18.960;2023-10-19T08:07:24;50569.97;;;-144.43;100.00
37486;BME280;23341;50.296;18.960;2023-10-19T08:12:31;50534.00;;;-144.43;100.00
37486;BME280;23341;50.296;18.960;2023-10-19T08:17:37;50554.00;;;-144.43;100.00
37486;BME280;23341;50.296;18.960;2023-10-19T08:22:42;50627.97;;;-144.43;100.00
37486;BME280;23341;50.296;18.960;2023-10-19T08:27:50;50687.94;;;-144.43;100.00
37486;BME280;23341;50.296;18.960;2023-10-19T08:32:55;50715.94;;;-144.43;100.00
37486;BME280;23341;50.296;18.960;2023-10-19T08:38:01;50695.94;;;-144.43;100.00
37486;BME280;23341;50.296;18.960;2023-10-19T08:43:13;50681.94;;;-144.43;100.00
37486;BME280;23341;50.296;18.960;2023-10-19T08:48:22;50671.94;;;-144.43;100.00
37486;BME280;23341;50.296;18.960;2023-10-19T08:53:28;50599.97;;;-144.43;100.00
37486;BME280;23341;50.296;18.960;2023-10-19T08:58:34;50583.97;;;-144.43;100.00
37486;BME280;23341;50.296;18.960;2023-10-19T09:03:39;50589.97;;;-144.43;100.00
37486;BME280;23341;50.296;18.960;2023-10-19T09:08:47;50577.97;;;-144.43;100.00
37486;BME280;23341;50.296;18.960;2023-10-19T09:13:52;50565.97;;;-144.43;100.00
37486;BME280;23341;50.296;18.960;2023-10-19T09:18:59;50597.97;;;-144.43;100.00
37486;BME280;23341;50.296;18.960;2023-10-19T09:24:04;50585.97;;;-144.43;100.00
37486;BME280;23341;50.296;18.960;2023-10-19T09:29:13;50575.97;;;-144.43;100.00
37486;BME280;23341;50.296;18.960;2023-10-19T09:34:23;50542.00;;;-144.43;100.00
37486;BME280;23341;50.296;18.960;2023-10-19T09:39:34;50530.00;;;-144.43;100.00
37486;BME280;23341;50.296;18.960;2023-10-19T09:44:41;50585.97;;;-144.43;100.00
37486;BME280;23341;50.296;18.960;2023-10-19T09:49:47;50617.97;;;-144.43;100.00
37486;BME280;23341;50.296;18.960;2023-10-19T09:54:59;50613.97;;;-144.43;100.00
37486;BME280;23341;50.296;18.960;2023-10-19T10:00:06;50611.97;;;-144.43;100.00
37486;BME280;23341;50.296;18.960;2023-10-19T10:05:47;50679.94;;;-144.43;100.00
37486;BME280;23341;50.296;18.960;2023-10-19T10:10:51;50659.94;;;-144.43;100.00
37486;BME280;23341;50.296;18.960;2023-10-19T10:15:56;50715.94;;;-144.43;100.00
37486;BME280;23341;50.296;18.960;2023-10-19T10:21:11;50693.94;;;-144.43;100.00
37486;BME280;23341;50.296;18.960;2023-10-19T10:26:16;50757.91;;;-144.43;100.00
37486;BME280;23341;50.296;18.960;2023-10-19T10:31:21;50767.91;;;-144.43;100.00
37486;BME280;23341;50.296;18.960;2023-10-19T10:36:59;50781.91;;;-144.43;100.00
37486;BME280;23341;50.296;18.960;2023-10-19T10:42:05;50725.94;;;-144.43;100.00
37486;BME280;23341;50.296;18.960;2023-10-19T10:47:11;50719.94;;;-144.43;100.00
37486;BME280;23341;50.296;18.960;2023-10-19T10:52:25;50733.94;;;-144.43;100.00
37486;BME280;23341;50.296;18.960;2023-10-19T10:57:32;50725.94;;;-144.43;100.00
37486;BME280;23341;50.296;18.960;2023-10-19T11:02:37;50699.94;;;-144.43;100.00
37486;BME280;23341;50.296;18.960;2023-10-19T11:08:06;50711.94;;;-144.43;100.00
37486;BME280;23341;50.296;18.960;2023-10-19T11:13:13;50757.91;;;-144.43;100.00
37486;BME280;23341;50.296;18.960;2023-10-19T11:18:32;50785.91;;;-144.43;100.00
37486;BME280;23341;50.296;18.960;2023-10-19T11:23:39;50827.91;;;-144.43;100.00
37486;BME280;23341;50.296;18.960;2023-10-19T11:28:44;50831.91;;;-144.43;100.00
37486;BME280;23341;50.296;18.960;2023-10-19T11:33:54;50871.88;;;-144.43;100.00
37486;BME280;23341;50.296;18.960;2023-10-19T11:39:01;50871.88;;;-144.43;100.00
37486;BME280;23341;50.296;18.960;2023-10-19T11:44:07;50893.88;;;-144.43;100.00
37486;BME280;23341;50.296;18.960;2023-10-19T11:49:12;50883.88;;;-144.43;100.00
37486;BME280;23341;50.296;18.960;2023-10-19T11:54:17;50945.84;;;-144.43;100.00
37486;BME280;23341;50.296;18.960;2023-10-19T11:59:22;50967.84;;;-144.43;100.00
37486;BME280;23341;50.296;18.960;2023-10-19T12:04:26;51023.84;;;-144.43;100.00
37486;BME280;23341;50.296;18.960;2023-10-19T12:09:32;51041.84;;;-144.43;100.00
37486;BME280;23341;50.296;18.960;2023-10-19T12:14:36;51045.84;;;-144.43;100.00
37486;BME280;23341;50.296;18.960;2023-10-19T12:19:41;51035.84;;;-144.43;100.00
37486;BME280;23341;50.296;18.960;2023-10-19T12:24:47;51013.84;;;-144.43;100.00
37486;BME280;23341;50.296;18.960;2023-10-19T12:29:52;50977.84;;;-144.43;100.00
37486;BME280;23341;50.296;18.960;2023-10-19T12:34:57;50957.84;;;-144.43;100.00
37486;BME280;23341;50.296;18.960;2023-10-19T12:40:03;50969.84;;;-144.43;100.00
37486;BME280;23341;50.296;18.960;2023-10-19T12:45:29;51025.84;;;-144.43;100.00
37486;BME280;23341;50.296;18.960;2023-10-19T12:50:39;51113.81;;;-144.43;100.00
37486;BME280;23341;50.296;18.960;2023-10-19T12:55:45;51121.81;;;-144.43;100.00
37486;BME280;23341;50.296;18.960;2023-10-19T13:00:49;51157.81;;;-144.43;100.00
37486;BME280;23341;50.296;18.960;2023-10-19T13:05:54;51091.81;;;-144.43;100.00
37486;BME280;23341;50.296;18.960;2023-10-19T13:11:02;51173.81;;;-144.43;100.00
37486;BME280;23341;50.296;18.960;2023-10-19T13:16:19;51145.81;;;-144.43;100.00
37486;BME280;23341;50.296;18.960;2023-10-19T13:21:23;51165.81;;;-144.43;100.00
37486;BME280;23341;50.296;18.960;2023-10-19T13:26:32;51177.81;;;-144.43;100.00
37486;BME280;23341;50.296;18.960;2023-10-19T13:31:37;51163.81;;;-144.43;100.00
37486;BME280;23341;50.296;18.960;2023-10-19T13:36:42;51155.81;;;-144.43;100.00
37486;BME280;23341;50.296;18.960;2023-10-19T13:41:50;51215.78;;;-144.43;100.00
37486;BME280;23341;50.296;18.960;2023-10-19T13:46:55;51175.81;;;-144.43;100.00
37486;BME280;23341;50.296;18.960;2023-10-19T13:51:59;51205.78;;;-144.43;100.00
37486;BME280;23341;50.296;18.960;2023-10-19T13:57:05;51201.78;;;-144.43;100.00
37486;BME280;23341;50.296;18.960;2023-10-19T14:02:09;51183.81;;;-144.43;100.00
37486;BME280;23341;50.296;18.960;2023-10-19T14:07:14;51195.78;;;-144.43;100.00
37486;BME280;23341;50.296;18.960;2023-10-19T14:12:20;51209.78;;;-144.43;100.00
37486;BME280;23341;50.296;18.960;2023-10-19T14:17:25;51229.78;;;-144.43;100.00
37486;BME280;23341;50.296;18.960;2023-10-19T14:22:30;51237.78;;;-144.43;100.00
37486;BME280;23341;50.296;18.960;2023-10-19T14:27:41;51301.78;;;-144.43;100.00
37486;BME280;23341;50.296;18.960;2023-10-19T14:32:46;51339.78;;;-144.43;100.00
37486;BME280;23341;50.296;18.960;2023-10-19T14:37:52;51297.78;;;-144.43;100.00
37486;BME280;23341;50.296;18.960;2023-10-19T14:42:59;51319.78;;;-144.43;100.00
37486;BME280;23341;50.296;18.960;2023-10-19T14:48:05;51319.78;;;-144.43;100.00
37486;BME280;23341;50.296;18.960;2023-10-19T14:53:12;51337.78;;;-144.43;100.00
37486;BME280;23341;50.296;18.960;2023-10-19T14:58:18;51305.78;;;-144.43;100.00
37486;BME280;23341;50.296;18.960;2023-10-19T15:03:22;51317.78;;;-144.43;100.00
37486;BME280;23341;50.296;18.960;2023-10-19T15:08:28;51325.78;;;-144.43;100.00
37486;BME280;23341;50.296;18.960;2023-10-19T15:13:35;51337.78;;;-144.43;100.00
37486;BME280;23341;50.296;18.960;2023-10-19T15:18:40;51317.78;;;-144.43;100.00
37486;BME280;23341;50.296;18.960;2023-10-19T15:23:44;51339.78;;;-144.43;100.00
37486;BME280;23341;50.296;18.960;2023-10-19T15:28:51;51345.75;;;-144.43;100.00
37486;BME280;23341;50.296;18.960;2023-10-19T15:33:55;51355.75;;;-144.43;100.00
37486;BME280;23341;50.296;18.960;2023-10-19T15:38:59;51389.75;;;-144.43;100.00
37486;BME280;23341;50.296;18.960;2023-10-19T15:44:05;51341.78;;;-144.43;100.00
37486;BME280;23341;50.296;18.960;2023-10-19T15:49:10;51325.78;;;-144.43;100.00
37486;BME280;23341;50.296;18.960;2023-10-19T15:54:18;51333.78;;;-144.43;100.00
37486;BME280;23341;50.296;18.960;2023-10-19T15:59:24;51369.75;;;-144.43;100.00
37486;BME280;23341;50.296;18.960;2023-10-19T16:04:28;51393.75;;;-144.43;100.00
37486;BME280;23341;50.296;18.960;2023-10-19T16:09:33;51387.75;;;-144.43;100.00
37486;BME280;23341;50.296;18.960;2023-10-19T16:14:39;51355.75;;;-144.43;100.00
37486;BME280;23341;50.296;18.960;2023-10-19T16:19:43;51411.75;;;-144.43;100.00
37486;BME280;23341;50.296;18.960;2023-10-19T16:24:47;51447.75;;;-144.43;100.00
37486;BME280;23341;50.296;18.960;2023-10-19T16:29:53;51437.75;;;-144.43;100.00
37486;BME280;23341;50.296;18.960;2023-10-19T16:34:57;51461.75;;;-144.43;100.00
37486;BME280;23341;50.296;18.960;2023-10-19T16:40:02;51453.75;;;-144.43;100.00
37486;BME280;23341;50.296;18.960;2023-10-19T16:45:09;51467.75;;;-144.43;100.00
37486;BME280;23341;50.296;18.960;2023-10-19T16:50:14;51513.75;;;-144.43;100.00
37486;BME280;23341;50.296;18.960;2023-10-19T16:55:24;51557.72;;;-144.43;100.00
37486;BME280;23341;50.296;18.960;2023-10-19T17:00:31;51513.75;;;-144.43;100.00
37486;BME280;23341;50.296;18.960;2023-10-19T17:05:36;51559.72;;;-144.43;100.00
37486;BME280;23341;50.296;18.960;2023-10-19T17:10:40;51553.72;;;-144.43;100.00
37486;BME280;23341;50.296;18.960;2023-10-19T17:15:46;51549.72;;;-144.43;100.00
37486;BME280;23341;50.296;18.960;2023-10-19T17:20:50;51565.72;;;-144.43;100.00
37486;BME280;23341;50.296;18.960;2023-10-19T17:25:54;51587.72;;;-144.43;100.00
37486;BME280;23341;50.296;18.960;2023-10-19T17:31:01;51597.72;;;-144.43;100.00
37486;BME280;23341;50.296;18.960;2023-10-19T17:36:05;51599.72;;;-144.43;100.00
37486;BME280;23341;50.296;18.960;2023-10-19T17:41:10;51569.72;;;-144.43;100.00
37486;BME280;23341;50.296;18.960;2023-10-19T17:46:16;51545.75;;;-144.43;100.00
37486;BME280;23341;50.296;18.960;2023-10-19T17:51:21;51613.72;;;-144.43;100.00
37486;BME280;23341;50.296;18.960;2023-10-19T17:56:25;51601.72;;;-144.43;100.00
37486;BME280;23341;50.296;18.960;2023-10-19T18:01:31;51645.72;;;-144.43;100.00
37486;BME280;23341;50.296;18.960;2023-10-19T18:06:35;51613.72;;;-144.43;100.00
37486;BME280;23341;50.296;18.960;2023-10-19T18:11:40;51599.72;;;-144.43;100.00
37486;BME280;23341;50.296;18.960;2023-10-19T18:16:46;51617.72;;;-144.43;100.00
37486;BME280;23341;50.296;18.960;2023-10-19T18:21:50;51633.72;;;-144.43;100.00
37486;BME280;23341;50.296;18.960;2023-10-19T18:26:57;51637.72;;;-144.43;100.00
37486;BME280;23341;50.296;18.960;2023-10-19T18:32:03;51619.72;;;-144.43;100.00
37486;BME280;23341;50.296;18.960;2023-10-19T18:37:07;51633.72;;;-144.43;100.00
37486;BME280;23341;50.296;18.960;2023-10-19T18:42:12;51615.72;;;-144.43;100.00
37486;BME280;23341;50.296;18.960;2023-10-19T18:47:18;51611.72;;;-144.43;100.00
37486;BME280;23341;50.296;18.960;2023-10-19T18:52:23;51633.72;;;-144.43;100.00
37486;BME280;23341;50.296;18.960;2023-10-19T18:57:27;51631.72;;;-144.43;100.00
37486;BME280;23341;50.296;18.960;2023-10-19T19:02:33;51649.72;;;-144.43;100.00
37486;BME280;23341;50.296;18.960;2023-10-19T19:07:37;51681.72;;;-144.43;100.00
37486;BME280;23341;50.296;18.960;2023-10-19T19:12:42;51639.72;;;-144.43;100.00
37486;BME280;23341;50.296;18.960;2023-10-19T19:17:47;51671.72;;;-144.43;100.00
37486;BME280;23341;50.296;18.960;2023-10-19T19:22:52;51753.72;;;-144.43;100.00
37486;BME280;23341;50.296;18.960;2023-10-19T19:27:56;51805.72;;;-144.43;100.00
37486;BME280;23341;50.296;18.960;2023-10-19T19:33:03;51863.72;;;-144.43;100.00
37486;BME280;23341;50.296;18.960;2023-10-19T19:38:08;51923.72;;;-144.43;100.00
37486;BME280;23341;50.296;18.960;2023-10-19T19:43:15;51893.72;;;-144.43;100.00
37486;BME280;23341;50.296;18.960;2023-10-19T19:48:23;51865.72;;;-144.43;100.00
37486;BME280;23341;50.296;18.960;2023-10-19T19:53:27;51919.69;;;-144.43;100.00
37486;BME280;23341;50.296;18.960;2023-10-19T19:58:33;51893.72;;;-144.43;100.00
37486;BME280;23341;50.296;18.960;2023-10-19T20:03:39;51885.72;;;-144.43;100.00
37486;BME280;23341;50.296;18.960;2023-10-19T20:08:44;51841.72;;;-144.43;100.00
37486;BME280;23341;50.296;18.960;2023-10-19T20:13:48;51859.72;;;-144.43;100.00
37486;BME280;23341;50.296;18.960;2023-10-19T20:18:55;51809.72;;;-144.43;100.00
37486;BME280;23341;50.296;18.960;2023-10-19T20:23:59;51835.72;;;-144.43;100.00
37486;BME280;23341;50.296;18.960;2023-10-19T20:29:05;51857.72;;;-144.43;100.00
37486;BME280;23341;50.296;18.960;2023-10-19T20:34:12;51843.72;;;-144.43;100.00
37486;BME280;23341;50.296;18.960;2023-10-19T20:39:19;51835.72;;;-144.43;100.00
37486;BME280;23341;50.296;18.960;2023-10-19T20:44:26;51841.72;;;-144.43;100.00
37486;BME280;23341;50.296;18.960;2023-10-19T20:49:35;51845.72;;;-144.43;100.00
37486;BME280;23341;50.296;18.960;2023-10-19T20:54:39;51831.72;;;-144.43;100.00
37486;BME280;23341;50.296;18.960;2023-10-19T20:59:44;51857.72;;;-144.43;100.00
37486;BME280;23341;50.296;18.960;2023-10-19T21:04:49;51837.72;;;-144.43;100.00
37486;BME280;23341;50.296;18.960;2023-10-19T21:09:54;51853.72;;;-144.43;100.00
37486;BME280;23341;50.296;18.960;2023-10-19T21:14:58;51843.72;;;-144.43;100.00
37486;BME280;23341;50.296;18.960;2023-10-19T21:20:05;51875.72;;;-144.43;100.00
37486;BME280;23341;50.296;18.960;2023-10-19T21:25:12;51897.72;;;-144.43;100.00
37486;BME280;23341;50.296;18.960;2023-10-19T21:30:16;51883.72;;;-144.43;100.00
37486;BME280;23341;50.296;18.960;2023-10-19T21:35:22;51855.72;;;-144.43;100.00
37486;BME280;23341;50.296;18.960;2023-10-19T21:40:28;51863.72;;;-144.43;100.00
37486;BME280;23341;50.296;18.960;2023-10-19T21:45:34;51921.72;;;-144.43;100.00
37486;BME280;23341;50.296;18.960;2023-10-19T21:50:40;51899.72;;;-144.43;100.00
37486;BME280;23341;50.296;18.960;2023-10-19T21:55:44;51857.72;;;-144.43;100.00
37486;BME280;23341;50.296;18.960;2023-10-19T22:00:49;51867.72;;;-144.43;100.00
37486;BME280;23341;50.296;18.960;2023-10-19T22:06:03;51945.69;;;-144.43;100.00
37486;BME280;23341;50.296;18.960;2023-10-19T22:11:08;51875.72;;;-144.43;100.00
37486;BME280;23341;50.296;18.960;2023-10-19T22:16:12;51855.72;;;-144.43;100.00
37486;BME280;23341;50.296;18.960;2023-10-19T22:21:18;51893.72;;;-144.43;100.00
37486;BME280;23341;50.296;18.960;2023-10-19T22:26:23;51927.72;;;-144.43;100.00
37486;BME280;23341;50.296;18.960;2023-10-19T22:31:28;51917.72;;;-144.43;100.00
37486;BME280;23341;50.296;18.960;2023-10-19T22:36:34;51915.72;;;-144.43;100.00
37486;BME280;23341;50.296;18.960;2023-10-19T22:41:39;51901.72;;;-144.43;100.00
37486;BME280;23341;50.296;18.960;2023-10-19T22:46:44;51947.69;;;-144.43;100.00
37486;BME280;23341;50.296;18.960;2023-10-19T22:51:50;51951.69;;;-144.43;100.00
37486;BME280;23341;50.296;18.960;2023-10-19T22:56:54;51929.72;;;-144.43;100.00
37486;BME280;23341;50.296;18.960;2023-10-19T23:01:59;51939.72;;;-144.43;100.00
37486;BME280;23341;50.296;18.960;2023-10-19T23:07:05;51911.72;;;-144.43;100.00
37486;BME280;23341;50.296;18.960;2023-10-19T23:12:11;51913.72;;;-144.43;100.00
37486;BME280;23341;50.296;18.960;2023-10-19T23:17:17;51917.72;;;-144.43;100.00
37486;BME280;23341;50.296;18.960;2023-10-19T23:22:26;51943.72;;;-144.43;100.00
37486;BME280;23341;50.296;18.960;2023-10-19T23:27:32;51905.72;;;-144.43;100.00
37486;BME280;23341;50.296;18.960;2023-10-19T23:32:36;51887.72;;;-144.43;100.00
37486;BME280;23341;50.296;18.960;2023-10-19T23:37:43;51905.72;;;-144.43;100.00
37486;BME280;23341;50.296;18.960;2023-10-19T23:42:47;51913.72;;;-144.43;100.00
37486;BME280;23341;50.296;18.960;2023-10-19T23:47:51;51951.69;;;-144.43;100.00
37486;BME280;23341;50.296;18.960;2023-10-19T23:52:58;51941.72;;;-144.43;100.00
37486;BME280;23341;50.296;18.960;2023-10-19T23:58:02;51965.69;;;-144.43;100.00
